Terminal Aerodrome Forecast
Issued by NWS

Current Version | Previous Version | Text Only | Print | Product List | Glossary On
Versions: 1 2 3 4 5 6 7 8 9 10 11 12 13
000
FTUS42 KTBW 311100
TAFRSW
TAF
KRSW 311135Z 3112/0112 05008KT P6SM SCT250
     FM311500 07012KT P6SM SCT250
     FM311800 09012KT P6SM SCT040 SCT250
     FM312300 09008KT P6SM SCT040 SCT250
     FM010300 08005KT P6SM SCT040 SCT250=

USA.gov is the U.S. government's official web portal to all federal, state and local government web resources and services.